sensor_id;sensor_type;location;lat;lon;timestamp;temperature;humidity
3069;DHT22;1545;51.728;8.796;2023-05-13T00:01:35;9.70;96.40
3069;DHT22;1545;51.728;8.796;2023-05-13T00:04:07;9.80;96.40
3069;DHT22;1545;51.728;8.796;2023-05-13T00:06:33;9.70;96.60
3069;DHT22;1545;51.728;8.796;2023-05-13T00:08:59;9.70;96.40
3069;DHT22;1545;51.728;8.796;2023-05-13T00:11:25;9.60;96.00
3069;DHT22;1545;51.728;8.796;2023-05-13T00:13:51;9.40;95.60
3069;DHT22;1545;51.728;8.796;2023-05-13T00:16:16;9.40;95.90
3069;DHT22;1545;51.728;8.796;2023-05-13T00:18:42;9.30;96.10
3069;DHT22;1545;51.728;8.796;2023-05-13T00:21:08;9.30;96.70
3069;DHT22;1545;51.728;8.796;2023-05-13T00:23:33;9.30;96.70
3069;DHT22;1545;51.728;8.796;2023-05-13T00:25:59;9.30;96.40
3069;DHT22;1545;51.728;8.796;2023-05-13T00:28:25;9.20;96.40
3069;DHT22;1545;51.728;8.796;2023-05-13T00:30:50;9.30;96.30
3069;DHT22;1545;51.728;8.796;2023-05-13T00:33:16;9.20;95.70
3069;DHT22;1545;51.728;8.796;2023-05-13T00:35:42;9.10;95.20
3069;DHT22;1545;51.728;8.796;2023-05-13T00:38:08;9.10;95.90
3069;DHT22;1545;51.728;8.796;2023-05-13T00:40:37;9.00;96.40
3069;DHT22;1545;51.728;8.796;2023-05-13T00:43:06;9.00;96.80
3069;DHT22;1545;51.728;8.796;2023-05-13T00:45:32;9.10;97.40
3069;DHT22;1545;51.728;8.796;2023-05-13T00:47:58;9.20;97.50
3069;DHT22;1545;51.728;8.796;2023-05-13T00:50:23;9.20;97.30
3069;DHT22;1545;51.728;8.796;2023-05-13T00:52:49;9.10;96.60
3069;DHT22;1545;51.728;8.796;2023-05-13T00:55:15;9.00;96.30
3069;DHT22;1545;51.728;8.796;2023-05-13T00:57:41;9.30;96.10
3069;DHT22;1545;51.728;8.796;2023-05-13T01:00:07;9.30;95.10
3069;DHT22;1545;51.728;8.796;2023-05-13T01:02:56;9.30;95.10
3069;DHT22;1545;51.728;8.796;2023-05-13T01:05:49;9.20;95.90
3069;DHT22;1545;51.728;8.796;2023-05-13T01:11:27;9.40;96.00
3069;DHT22;1545;51.728;8.796;2023-05-13T01:14:02;9.30;94.70
3069;DHT22;1545;51.728;8.796;2023-05-13T01:16:39;9.20;94.60
3069;DHT22;1545;51.728;8.796;2023-05-13T01:19:33;9.20;94.60
3069;DHT22;1545;51.728;8.796;2023-05-13T01:21:59;9.00;94.20
3069;DHT22;1545;51.728;8.796;2023-05-13T01:24:25;9.10;94.50
3069;DHT22;1545;51.728;8.796;2023-05-13T01:26:51;9.10;94.60
3069;DHT22;1545;51.728;8.796;2023-05-13T01:29:16;9.20;94.50
3069;DHT22;1545;51.728;8.796;2023-05-13T01:31:42;9.10;93.40
3069;DHT22;1545;51.728;8.796;2023-05-13T01:34:11;8.90;93.40
3069;DHT22;1545;51.728;8.796;2023-05-13T01:36:38;8.70;93.90
3069;DHT22;1545;51.728;8.796;2023-05-13T01:39:04;8.70;94.40
3069;DHT22;1545;51.728;8.796;2023-05-13T01:41:30;8.70;94.50
3069;DHT22;1545;51.728;8.796;2023-05-13T01:43:55;8.70;94.30
3069;DHT22;1545;51.728;8.796;2023-05-13T01:46:21;8.80;94.70
3069;DHT22;1545;51.728;8.796;2023-05-13T01:48:47;9.00;95.50
3069;DHT22;1545;51.728;8.796;2023-05-13T01:51:12;9.00;95.80
3069;DHT22;1545;51.728;8.796;2023-05-13T01:53:38;9.10;95.70
3069;DHT22;1545;51.728;8.796;2023-05-13T01:56:04;9.10;94.90
3069;DHT22;1545;51.728;8.796;2023-05-13T01:58:29;9.20;94.50
3069;DHT22;1545;51.728;8.796;2023-05-13T02:00:55;9.20;94.50
3069;DHT22;1545;51.728;8.796;2023-05-13T02:03:20;9.30;94.40
3069;DHT22;1545;51.728;8.796;2023-05-13T02:05:46;9.40;94.40
3069;DHT22;1545;51.728;8.796;2023-05-13T02:08:13;9.40;94.60
3069;DHT22;1545;51.728;8.796;2023-05-13T02:10:38;9.40;95.10
3069;DHT22;1545;51.728;8.796;2023-05-13T02:13:04;9.50;95.20
3069;DHT22;1545;51.728;8.796;2023-05-13T02:15:29;9.70;95.10
3069;DHT22;1545;51.728;8.796;2023-05-13T02:17:55;9.80;94.90
3069;DHT22;1545;51.728;8.796;2023-05-13T02:20:20;9.80;93.70
3069;DHT22;1545;51.728;8.796;2023-05-13T02:22:46;9.80;93.20
3069;DHT22;1545;51.728;8.796;2023-05-13T02:25:11;9.70;93.20
3069;DHT22;1545;51.728;8.796;2023-05-13T02:27:37;9.50;93.50
3069;DHT22;1545;51.728;8.796;2023-05-13T02:30:02;9.50;93.50
3069;DHT22;1545;51.728;8.796;2023-05-13T02:32:28;9.60;94.10
3069;DHT22;1545;51.728;8.796;2023-05-13T02:34:53;9.70;94.90
3069;DHT22;1545;51.728;8.796;2023-05-13T02:37:19;9.60;95.60
3069;DHT22;1545;51.728;8.796;2023-05-13T02:39:44;9.60;96.50
3069;DHT22;1545;51.728;8.796;2023-05-13T02:42:10;9.70;96.50
3069;DHT22;1545;51.728;8.796;2023-05-13T02:44:36;9.70;96.60
3069;DHT22;1545;51.728;8.796;2023-05-13T02:47:01;9.70;96.80
3069;DHT22;1545;51.728;8.796;2023-05-13T02:49:26;9.70;96.80
3069;DHT22;1545;51.728;8.796;2023-05-13T02:51:52;9.70;96.80
3069;DHT22;1545;51.728;8.796;2023-05-13T02:54:17;9.70;96.90
3069;DHT22;1545;51.728;8.796;2023-05-13T02:56:43;9.60;96.70
3069;DHT22;1545;51.728;8.796;2023-05-13T02:59:08;9.60;96.90
3069;DHT22;1545;51.728;8.796;2023-05-13T03:01:34;9.70;97.10
3069;DHT22;1545;51.728;8.796;2023-05-13T03:03:59;9.70;97.30
3069;DHT22;1545;51.728;8.796;2023-05-13T03:06:25;9.70;97.30
3069;DHT22;1545;51.728;8.796;2023-05-13T03:08:51;9.70;97.60
3069;DHT22;1545;51.728;8.796;2023-05-13T03:11:16;9.50;97.90
3069;DHT22;1545;51.728;8.796;2023-05-13T03:13:42;9.50;98.00
3069;DHT22;1545;51.728;8.796;2023-05-13T03:16:07;9.40;98.20
3069;DHT22;1545;51.728;8.796;2023-05-13T03:18:34;9.40;98.10
3069;DHT22;1545;51.728;8.796;2023-05-13T03:21:00;9.40;97.90
3069;DHT22;1545;51.728;8.796;2023-05-13T03:23:25;9.40;97.80
3069;DHT22;1545;51.728;8.796;2023-05-13T03:25:51;9.30;97.90
3069;DHT22;1545;51.728;8.796;2023-05-13T03:28:16;9.30;97.80
3069;DHT22;1545;51.728;8.796;2023-05-13T03:30:41;9.30;97.70
3069;DHT22;1545;51.728;8.796;2023-05-13T03:33:08;9.30;97.60
3069;DHT22;1545;51.728;8.796;2023-05-13T03:35:33;9.40;97.70
3069;DHT22;1545;51.728;8.796;2023-05-13T03:37:59;9.40;97.80
3069;DHT22;1545;51.728;8.796;2023-05-13T03:40:25;9.30;97.90
3069;DHT22;1545;51.728;8.796;2023-05-13T03:42:50;9.30;97.70
3069;DHT22;1545;51.728;8.796;2023-05-13T03:45:16;9.30;97.80
3069;DHT22;1545;51.728;8.796;2023-05-13T03:47:41;9.30;97.70
3069;DHT22;1545;51.728;8.796;2023-05-13T03:50:07;9.30;97.50
3069;DHT22;1545;51.728;8.796;2023-05-13T03:52:33;9.40;97.70
3069;DHT22;1545;51.728;8.796;2023-05-13T03:54:58;9.40;97.90
3069;DHT22;1545;51.728;8.796;2023-05-13T03:57:24;9.50;98.10
3069;DHT22;1545;51.728;8.796;2023-05-13T03:59:49;9.60;98.40
3069;DHT22;1545;51.728;8.796;2023-05-13T04:02:15;9.60;98.50
3069;DHT22;1545;51.728;8.796;2023-05-13T04:04:40;9.60;98.80
3069;DHT22;1545;51.728;8.796;2023-05-13T04:07:06;9.70;98.50
3069;DHT22;1545;51.728;8.796;2023-05-13T04:09:31;9.70;98.00
3069;DHT22;1545;51.728;8.796;2023-05-13T04:11:57;9.80;97.60
3069;DHT22;1545;51.728;8.796;2023-05-13T04:14:22;9.90;97.70
3069;DHT22;1545;51.728;8.796;2023-05-13T04:16:48;10.10;97.30
3069;DHT22;1545;51.728;8.796;2023-05-13T04:19:13;10.30;97.20
3069;DHT22;1545;51.728;8.796;2023-05-13T04:21:39;10.40;96.90
3069;DHT22;1545;51.728;8.796;2023-05-13T04:24:04;10.60;96.60
3069;DHT22;1545;51.728;8.796;2023-05-13T04:26:30;10.70;96.00
3069;DHT22;1545;51.728;8.796;2023-05-13T04:28:56;10.90;95.00
3069;DHT22;1545;51.728;8.796;2023-05-13T04:31:21;11.10;94.50
3069;DHT22;1545;51.728;8.796;2023-05-13T04:33:47;11.40;94.00
3069;DHT22;1545;51.728;8.796;2023-05-13T04:36:12;11.60;93.20
3069;DHT22;1545;51.728;8.796;2023-05-13T04:38:38;11.80;92.70
3069;DHT22;1545;51.728;8.796;2023-05-13T04:41:04;12.00;91.90
3069;DHT22;1545;51.728;8.796;2023-05-13T04:43:29;12.30;90.50
3069;DHT22;1545;51.728;8.796;2023-05-13T04:45:55;12.50;89.10
3069;DHT22;1545;51.728;8.796;2023-05-13T04:48:20;13.50;88.00
3069;DHT22;1545;51.728;8.796;2023-05-13T04:50:46;15.30;84.30
3069;DHT22;1545;51.728;8.796;2023-05-13T04:53:12;16.80;78.80
3069;DHT22;1545;51.728;8.796;2023-05-13T04:55:38;17.70;76.50
3069;DHT22;1545;51.728;8.796;2023-05-13T04:58:04;17.10;77.10
3069;DHT22;1545;51.728;8.796;2023-05-13T05:00:29;17.80;76.60
3069;DHT22;1545;51.728;8.796;2023-05-13T05:02:55;18.80;73.00
3069;DHT22;1545;51.728;8.796;2023-05-13T05:05:21;18.40;73.30
3069;DHT22;1545;51.728;8.796;2023-05-13T05:07:46;18.30;73.60
3069;DHT22;1545;51.728;8.796;2023-05-13T05:10:12;17.90;74.80
3069;DHT22;1545;51.728;8.796;2023-05-13T05:12:39;19.50;71.00
3069;DHT22;1545;51.728;8.796;2023-05-13T05:15:05;20.80;66.60
3069;DHT22;1545;51.728;8.796;2023-05-13T05:17:31;21.90;64.00
3069;DHT22;1545;51.728;8.796;2023-05-13T05:19:58;22.30;62.10
3069;DHT22;1545;51.728;8.796;2023-05-13T05:22:25;22.80;60.00
3069;DHT22;1545;51.728;8.796;2023-05-13T05:24:50;23.30;61.10
3069;DHT22;1545;51.728;8.796;2023-05-13T05:27:16;24.00;60.60
3069;DHT22;1545;51.728;8.796;2023-05-13T05:29:42;24.30;60.30
3069;DHT22;1545;51.728;8.796;2023-05-13T05:32:07;25.10;57.10
3069;DHT22;1545;51.728;8.796;2023-05-13T05:34:33;25.30;56.90
3069;DHT22;1545;51.728;8.796;2023-05-13T05:36:58;25.60;55.60
3069;DHT22;1545;51.728;8.796;2023-05-13T05:39:23;25.90;55.00
3069;DHT22;1545;51.728;8.796;2023-05-13T05:41:49;25.90;55.00
3069;DHT22;1545;51.728;8.796;2023-05-13T05:44:15;25.50;56.00
3069;DHT22;1545;51.728;8.796;2023-05-13T05:46:40;26.10;55.10
3069;DHT22;1545;51.728;8.796;2023-05-13T05:49:05;25.70;54.90
3069;DHT22;1545;51.728;8.796;2023-05-13T05:51:32;23.40;59.30
3069;DHT22;1545;51.728;8.796;2023-05-13T05:53:58;21.60;63.90
3069;DHT22;1545;51.728;8.796;2023-05-13T05:56:23;21.20;65.80
3069;DHT22;1545;51.728;8.796;2023-05-13T05:58:49;20.80;67.40
3069;DHT22;1545;51.728;8.796;2023-05-13T06:01:14;20.00;70.40
3069;DHT22;1545;51.728;8.796;2023-05-13T06:03:40;20.30;69.70
3069;DHT22;1545;51.728;8.796;2023-05-13T06:06:06;20.10;70.90
3069;DHT22;1545;51.728;8.796;2023-05-13T06:08:31;21.50;67.30
3069;DHT22;1545;51.728;8.796;2023-05-13T06:10:57;22.20;64.80
3069;DHT22;1545;51.728;8.796;2023-05-13T06:13:22;21.20;66.10
3069;DHT22;1545;51.728;8.796;2023-05-13T06:15:48;22.30;65.00
3069;DHT22;1545;51.728;8.796;2023-05-13T06:18:13;23.60;62.30
3069;DHT22;1545;51.728;8.796;2023-05-13T06:20:39;24.50;60.80
3069;DHT22;1545;51.728;8.796;2023-05-13T06:23:05;23.20;60.20
3069;DHT22;1545;51.728;8.796;2023-05-13T06:25:30;24.10;58.60
3069;DHT22;1545;51.728;8.796;2023-05-13T06:27:56;25.50;56.40
3069;DHT22;1545;51.728;8.796;2023-05-13T06:30:21;25.90;54.90
3069;DHT22;1545;51.728;8.796;2023-05-13T06:32:47;26.10;53.90
3069;DHT22;1545;51.728;8.796;2023-05-13T06:35:13;27.50;51.30
3069;DHT22;1545;51.728;8.796;2023-05-13T06:37:38;28.20;50.30
3069;DHT22;1545;51.728;8.796;2023-05-13T06:40:04;28.30;49.70
3069;DHT22;1545;51.728;8.796;2023-05-13T06:42:30;28.60;47.80
3069;DHT22;1545;51.728;8.796;2023-05-13T06:44:56;28.70;47.50
3069;DHT22;1545;51.728;8.796;2023-05-13T06:47:21;28.30;48.10
3069;DHT22;1545;51.728;8.796;2023-05-13T06:49:46;28.30;48.40
3069;DHT22;1545;51.728;8.796;2023-05-13T06:52:12;28.60;47.80
3069;DHT22;1545;51.728;8.796;2023-05-13T06:54:38;28.30;46.20
3069;DHT22;1545;51.728;8.796;2023-05-13T06:57:04;28.10;46.40
3069;DHT22;1545;51.728;8.796;2023-05-13T06:59:31;28.20;46.60
3069;DHT22;1545;51.728;8.796;2023-05-13T07:01:56;28.10;46.20
3069;DHT22;1545;51.728;8.796;2023-05-13T07:04:22;28.10;46.20
3069;DHT22;1545;51.728;8.796;2023-05-13T07:06:47;27.80;46.70
3069;DHT22;1545;51.728;8.796;2023-05-13T07:09:13;27.90;47.90
3069;DHT22;1545;51.728;8.796;2023-05-13T07:11:39;28.00;47.90
3069;DHT22;1545;51.728;8.796;2023-05-13T07:14:04;28.10;47.30
3069;DHT22;1545;51.728;8.796;2023-05-13T07:16:30;28.30;48.20
3069;DHT22;1545;51.728;8.796;2023-05-13T07:18:55;28.50;46.50
3069;DHT22;1545;51.728;8.796;2023-05-13T07:21:21;28.30;46.50
3069;DHT22;1545;51.728;8.796;2023-05-13T07:23:46;28.10;46.60
3069;DHT22;1545;51.728;8.796;2023-05-13T07:26:12;27.90;47.20
3069;DHT22;1545;51.728;8.796;2023-05-13T07:28:37;27.70;47.40
3069;DHT22;1545;51.728;8.796;2023-05-13T07:31:06;27.60;47.60
3069;DHT22;1545;51.728;8.796;2023-05-13T07:33:31;28.00;48.00
3069;DHT22;1545;51.728;8.796;2023-05-13T07:35:57;28.00;48.50
3069;DHT22;1545;51.728;8.796;2023-05-13T07:38:22;28.20;47.40
3069;DHT22;1545;51.728;8.796;2023-05-13T07:40:48;28.80;47.40
3069;DHT22;1545;51.728;8.796;2023-05-13T07:43:14;29.40;46.50
3069;DHT22;1545;51.728;8.796;2023-05-13T07:45:42;29.00;47.90
3069;DHT22;1545;51.728;8.796;2023-05-13T07:48:07;29.20;47.30
3069;DHT22;1545;51.728;8.796;2023-05-13T07:50:34;28.90;46.40
3069;DHT22;1545;51.728;8.796;2023-05-13T07:52:59;28.80;47.10
3069;DHT22;1545;51.728;8.796;2023-05-13T07:55:26;28.80;47.50
3069;DHT22;1545;51.728;8.796;2023-05-13T07:57:52;28.60;47.40
3069;DHT22;1545;51.728;8.796;2023-05-13T08:00:17;28.30;47.50
3069;DHT22;1545;51.728;8.796;2023-05-13T08:02:43;28.50;48.20
3069;DHT22;1545;51.728;8.796;2023-05-13T08:05:09;29.20;47.70
3069;DHT22;1545;51.728;8.796;2023-05-13T08:07:35;28.90;46.30
3069;DHT22;1545;51.728;8.796;2023-05-13T08:10:00;28.10;46.30
3069;DHT22;1545;51.728;8.796;2023-05-13T08:12:26;28.10;48.40
3069;DHT22;1545;51.728;8.796;2023-05-13T08:14:52;26.80;48.70
3069;DHT22;1545;51.728;8.796;2023-05-13T08:17:17;26.00;49.70
3069;DHT22;1545;51.728;8.796;2023-05-13T08:19:44;26.30;49.40
3069;DHT22;1545;51.728;8.796;2023-05-13T08:22:10;26.30;51.90
3069;DHT22;1545;51.728;8.796;2023-05-13T08:24:36;25.10;53.20
3069;DHT22;1545;51.728;8.796;2023-05-13T08:27:01;25.10;51.50
3069;DHT22;1545;51.728;8.796;2023-05-13T08:29:27;26.00;51.70
3069;DHT22;1545;51.728;8.796;2023-05-13T08:31:54;26.00;50.60
3069;DHT22;1545;51.728;8.796;2023-05-13T08:34:19;26.70;50.30
3069;DHT22;1545;51.728;8.796;2023-05-13T08:36:45;27.10;47.60
3069;DHT22;1545;51.728;8.796;2023-05-13T08:39:10;27.80;48.70
3069;DHT22;1545;51.728;8.796;2023-05-13T08:41:36;26.60;48.90
3069;DHT22;1545;51.728;8.796;2023-05-13T08:44:04;27.00;50.30
3069;DHT22;1545;51.728;8.796;2023-05-13T08:46:32;26.10;49.10
3069;DHT22;1545;51.728;8.796;2023-05-13T08:48:59;27.30;46.70
3069;DHT22;1545;51.728;8.796;2023-05-13T08:51:25;27.70;47.00
3069;DHT22;1545;51.728;8.796;2023-05-13T08:53:52;28.60;45.90
3069;DHT22;1545;51.728;8.796;2023-05-13T08:56:19;27.40;49.90
3069;DHT22;1545;51.728;8.796;2023-05-13T08:58:46;27.10;48.90
3069;DHT22;1545;51.728;8.796;2023-05-13T09:01:12;27.80;46.60
3069;DHT22;1545;51.728;8.796;2023-05-13T09:03:43;28.20;47.70
3069;DHT22;1545;51.728;8.796;2023-05-13T09:06:14;28.60;46.00
3069;DHT22;1545;51.728;8.796;2023-05-13T09:08:40;29.30;47.40
3069;DHT22;1545;51.728;8.796;2023-05-13T09:11:06;29.60;45.60
3069;DHT22;1545;51.728;8.796;2023-05-13T09:13:31;28.20;47.40
3069;DHT22;1545;51.728;8.796;2023-05-13T09:15:57;26.20;49.30
3069;DHT22;1545;51.728;8.796;2023-05-13T09:18:29;23.50;57.10
3069;DHT22;1545;51.728;8.796;2023-05-13T09:20:55;23.50;58.30
3069;DHT22;1545;51.728;8.796;2023-05-13T09:23:22;22.50;61.90
3069;DHT22;1545;51.728;8.796;2023-05-13T09:25:48;21.10;64.20
3069;DHT22;1545;51.728;8.796;2023-05-13T09:28:14;21.10;68.10
3069;DHT22;1545;51.728;8.796;2023-05-13T09:30:40;21.50;67.60
3069;DHT22;1545;51.728;8.796;2023-05-13T09:33:11;22.30;61.80
3069;DHT22;1545;51.728;8.796;2023-05-13T09:35:38;23.10;60.10
3069;DHT22;1545;51.728;8.796;2023-05-13T09:38:15;22.70;61.40
3069;DHT22;1545;51.728;8.796;2023-05-13T09:40:41;23.50;59.20
3069;DHT22;1545;51.728;8.796;2023-05-13T09:43:13;24.70;54.60
3069;DHT22;1545;51.728;8.796;2023-05-13T09:45:39;25.50;53.60
3069;DHT22;1545;51.728;8.796;2023-05-13T09:48:07;26.30;51.50
3069;DHT22;1545;51.728;8.796;2023-05-13T09:50:32;25.30;49.00
3069;DHT22;1545;51.728;8.796;2023-05-13T09:53:09;26.00;52.10
3069;DHT22;1545;51.728;8.796;2023-05-13T09:55:34;25.40;51.90
3069;DHT22;1545;51.728;8.796;2023-05-13T09:57:59;24.70;54.40
3069;DHT22;1545;51.728;8.796;2023-05-13T10:00:25;24.00;55.10
3069;DHT22;1545;51.728;8.796;2023-05-13T10:02:51;23.20;57.80
3069;DHT22;1545;51.728;8.796;2023-05-13T10:05:17;23.00;60.30
3069;DHT22;1545;51.728;8.796;2023-05-13T10:07:43;22.40;60.00
3069;DHT22;1545;51.728;8.796;2023-05-13T10:10:09;21.80;62.30
3069;DHT22;1545;51.728;8.796;2023-05-13T10:12:35;21.20;63.60
3069;DHT22;1545;51.728;8.796;2023-05-13T10:15:03;21.20;65.90
3069;DHT22;1545;51.728;8.796;2023-05-13T10:17:29;21.30;64.30
3069;DHT22;1545;51.728;8.796;2023-05-13T10:19:56;21.10;66.90
3069;DHT22;1545;51.728;8.796;2023-05-13T10:22:27;21.20;64.90
3069;DHT22;1545;51.728;8.796;2023-05-13T10:25:00;21.30;63.10
3069;DHT22;1545;51.728;8.796;2023-05-13T10:27:31;21.40;68.00
3069;DHT22;1545;51.728;8.796;2023-05-13T10:29:58;21.30;63.00
3069;DHT22;1545;51.728;8.796;2023-05-13T10:32:26;21.40;65.00
3069;DHT22;1545;51.728;8.796;2023-05-13T10:40:52;21.10;64.20
3069;DHT22;1545;51.728;8.796;2023-05-13T10:43:26;21.40;67.40
3069;DHT22;1545;51.728;8.796;2023-05-13T10:45:57;21.50;64.80
3069;DHT22;1545;51.728;8.796;2023-05-13T10:48:24;21.90;64.10
3069;DHT22;1545;51.728;8.796;2023-05-13T10:50:56;22.00;62.90
3069;DHT22;1545;51.728;8.796;2023-05-13T10:53:29;22.00;66.70
3069;DHT22;1545;51.728;8.796;2023-05-13T10:55:56;21.80;61.00
3069;DHT22;1545;51.728;8.796;2023-05-13T10:58:30;21.90;59.00
3069;DHT22;1545;51.728;8.796;2023-05-13T11:01:13;22.00;59.90
3069;DHT22;1545;51.728;8.796;2023-05-13T11:03:39;22.20;59.50
3069;DHT22;1545;51.728;8.796;2023-05-13T11:06:40;22.10;61.30
3069;DHT22;1545;51.728;8.796;2023-05-13T11:09:13;22.30;59.40
3069;DHT22;1545;51.728;8.796;2023-05-13T11:11:40;22.40;62.80
3069;DHT22;1545;51.728;8.796;2023-05-13T11:14:18;22.70;62.80
3069;DHT22;1545;51.728;8.796;2023-05-13T11:19:35;22.90;64.60
3069;DHT22;1545;51.728;8.796;2023-05-13T11:22:19;22.80;62.40
3069;DHT22;1545;51.728;8.796;2023-05-13T11:25:07;21.90;61.60
3069;DHT22;1545;51.728;8.796;2023-05-13T11:27:37;21.40;62.60
3069;DHT22;1545;51.728;8.796;2023-05-13T11:30:05;20.60;65.10
3069;DHT22;1545;51.728;8.796;2023-05-13T11:35:19;21.60;59.60
3069;DHT22;1545;51.728;8.796;2023-05-13T11:37:45;22.00;61.10
3069;DHT22;1545;51.728;8.796;2023-05-13T11:40:23;22.00;61.90
3069;DHT22;1545;51.728;8.796;2023-05-13T11:42:49;21.80;61.50
3069;DHT22;1545;51.728;8.796;2023-05-13T11:45:19;21.70;64.80
3069;DHT22;1545;51.728;8.796;2023-05-13T11:47:44;21.70;61.00
3069;DHT22;1545;51.728;8.796;2023-05-13T11:50:21;22.00;63.00
3069;DHT22;1545;51.728;8.796;2023-05-13T11:52:52;21.90;63.40
3069;DHT22;1545;51.728;8.796;2023-05-13T11:55:31;20.70;63.20
3069;DHT22;1545;51.728;8.796;2023-05-13T11:57:57;20.60;67.00
3069;DHT22;1545;51.728;8.796;2023-05-13T12:00:27;21.10;60.50
3069;DHT22;1545;51.728;8.796;2023-05-13T12:02:53;21.50;64.30
3069;DHT22;1545;51.728;8.796;2023-05-13T12:05:19;21.60;58.00
3069;DHT22;1545;51.728;8.796;2023-05-13T12:07:44;21.90;61.50
3069;DHT22;1545;51.728;8.796;2023-05-13T12:10:10;22.00;64.20
3069;DHT22;1545;51.728;8.796;2023-05-13T12:12:38;22.10;58.70
3069;DHT22;1545;51.728;8.796;2023-05-13T12:15:12;21.70;61.40
3069;DHT22;1545;51.728;8.796;2023-05-13T12:17:38;20.90;62.50
3069;DHT22;1545;51.728;8.796;2023-05-13T12:22:30;21.30;60.60
3069;DHT22;1545;51.728;8.796;2023-05-13T12:24:56;21.80;64.10
3069;DHT22;1545;51.728;8.796;2023-05-13T12:27:25;22.10;59.30
3069;DHT22;1545;51.728;8.796;2023-05-13T12:29:54;21.80;57.60
3069;DHT22;1545;51.728;8.796;2023-05-13T12:32:20;21.90;59.90
3069;DHT22;1545;51.728;8.796;2023-05-13T12:34:48;21.70;56.50
3069;DHT22;1545;51.728;8.796;2023-05-13T12:37:14;21.90;58.40
3069;DHT22;1545;51.728;8.796;2023-05-13T12:39:40;22.20;61.50
3069;DHT22;1545;51.728;8.796;2023-05-13T12:42:16;22.40;59.20
3069;DHT22;1545;51.728;8.796;2023-05-13T12:44:43;22.10;55.80
3069;DHT22;1545;51.728;8.796;2023-05-13T12:47:09;22.10;60.00
3069;DHT22;1545;51.728;8.796;2023-05-13T12:49:56;22.00;58.50
3069;DHT22;1545;51.728;8.796;2023-05-13T12:52:26;21.50;54.80
3069;DHT22;1545;51.728;8.796;2023-05-13T12:54:52;21.60;53.30
3069;DHT22;1545;51.728;8.796;2023-05-13T12:57:17;22.10;58.40
3069;DHT22;1545;51.728;8.796;2023-05-13T12:59:44;22.30;57.70
3069;DHT22;1545;51.728;8.796;2023-05-13T13:02:10;21.60;57.50
3069;DHT22;1545;51.728;8.796;2023-05-13T13:04:36;21.40;61.80
3069;DHT22;1545;51.728;8.796;2023-05-13T13:07:01;20.90;62.80
3069;DHT22;1545;51.728;8.796;2023-05-13T13:09:27;20.90;60.60
3069;DHT22;1545;51.728;8.796;2023-05-13T13:11:52;21.30;61.10
3069;DHT22;1545;51.728;8.796;2023-05-13T13:14:18;21.30;62.80
3069;DHT22;1545;51.728;8.796;2023-05-13T13:16:43;21.10;60.10
3069;DHT22;1545;51.728;8.796;2023-05-13T13:19:09;20.90;61.90
3069;DHT22;1545;51.728;8.796;2023-05-13T13:21:34;21.00;61.60
3069;DHT22;1545;51.728;8.796;2023-05-13T13:24:00;21.60;63.30
3069;DHT22;1545;51.728;8.796;2023-05-13T13:26:25;21.60;58.80
3069;DHT22;1545;51.728;8.796;2023-05-13T13:28:51;20.90;57.90
3069;DHT22;1545;51.728;8.796;2023-05-13T13:31:17;20.30;61.10
3069;DHT22;1545;51.728;8.796;2023-05-13T13:33:42;20.20;61.10
3069;DHT22;1545;51.728;8.796;2023-05-13T13:36:08;20.80;63.90
3069;DHT22;1545;51.728;8.796;2023-05-13T13:38:33;21.10;61.70
3069;DHT22;1545;51.728;8.796;2023-05-13T13:40:59;21.30;58.80
3069;DHT22;1545;51.728;8.796;2023-05-13T13:43:24;21.40;62.10
3069;DHT22;1545;51.728;8.796;2023-05-13T13:45:50;21.70;63.30
3069;DHT22;1545;51.728;8.796;2023-05-13T13:48:15;21.80;58.60
3069;DHT22;1545;51.728;8.796;2023-05-13T13:50:41;22.20;60.30
3069;DHT22;1545;51.728;8.796;2023-05-13T13:53:06;22.50;60.60
3069;DHT22;1545;51.728;8.796;2023-05-13T13:55:32;22.50;56.80
3069;DHT22;1545;51.728;8.796;2023-05-13T13:57:57;21.70;52.50
3069;DHT22;1545;51.728;8.796;2023-05-13T14:00:23;21.00;58.60
3069;DHT22;1545;51.728;8.796;2023-05-13T14:02:48;21.00;59.60
3069;DHT22;1545;51.728;8.796;2023-05-13T14:05:14;21.20;57.50
3069;DHT22;1545;51.728;8.796;2023-05-13T14:07:40;21.20;59.70
3069;DHT22;1545;51.728;8.796;2023-05-13T14:10:07;21.20;60.90
3069;DHT22;1545;51.728;8.796;2023-05-13T14:12:32;21.60;60.80
3069;DHT22;1545;51.728;8.796;2023-05-13T14:14:59;22.10;59.60
3069;DHT22;1545;51.728;8.796;2023-05-13T14:17:25;22.20;59.60
3069;DHT22;1545;51.728;8.796;2023-05-13T14:19:51;22.20;58.80
3069;DHT22;1545;51.728;8.796;2023-05-13T14:22:18;22.10;57.50
3069;DHT22;1545;51.728;8.796;2023-05-13T14:24:44;21.60;58.30
3069;DHT22;1545;51.728;8.796;2023-05-13T14:27:09;21.40;61.70
3069;DHT22;1545;51.728;8.796;2023-05-13T14:29:35;21.40;63.10
3069;DHT22;1545;51.728;8.796;2023-05-13T14:32:00;21.10;64.00
3069;DHT22;1545;51.728;8.796;2023-05-13T14:34:28;21.00;65.50
3069;DHT22;1545;51.728;8.796;2023-05-13T14:36:53;21.00;63.20
3069;DHT22;1545;51.728;8.796;2023-05-13T14:39:19;20.80;62.70
3069;DHT22;1545;51.728;8.796;2023-05-13T14:41:44;20.70;63.30
3069;DHT22;1545;51.728;8.796;2023-05-13T14:44:11;20.70;62.00
3069;DHT22;1545;51.728;8.796;2023-05-13T14:46:37;20.70;61.10
3069;DHT22;1545;51.728;8.796;2023-05-13T14:49:04;20.60;60.70
3069;DHT22;1545;51.728;8.796;2023-05-13T14:51:29;20.80;61.90
3069;DHT22;1545;51.728;8.796;2023-05-13T14:53:55;21.30;60.30
3069;DHT22;1545;51.728;8.796;2023-05-13T14:56:21;21.60;58.70
3069;DHT22;1545;51.728;8.796;2023-05-13T14:58:46;21.90;59.30
3069;DHT22;1545;51.728;8.796;2023-05-13T15:01:12;22.00;56.40
3069;DHT22;1545;51.728;8.796;2023-05-13T15:03:37;22.20;57.20
3069;DHT22;1545;51.728;8.796;2023-05-13T15:06:03;22.40;57.70
3069;DHT22;1545;51.728;8.796;2023-05-13T15:08:29;22.60;56.10
3069;DHT22;1545;51.728;8.796;2023-05-13T15:10:54;22.10;58.00
3069;DHT22;1545;51.728;8.796;2023-05-13T15:13:20;21.70;58.20
3069;DHT22;1545;51.728;8.796;2023-05-13T15:15:46;21.50;58.30
3069;DHT22;1545;51.728;8.796;2023-05-13T15:18:12;21.40;58.90
3069;DHT22;1545;51.728;8.796;2023-05-13T15:20:38;21.60;61.60
3069;DHT22;1545;51.728;8.796;2023-05-13T15:23:03;21.80;59.90
3069;DHT22;1545;51.728;8.796;2023-05-13T15:25:29;22.00;57.50
3069;DHT22;1545;51.728;8.796;2023-05-13T15:27:54;21.80;60.40
3069;DHT22;1545;51.728;8.796;2023-05-13T15:30:20;22.10;61.80
3069;DHT22;1545;51.728;8.796;2023-05-13T15:32:45;22.30;58.20
3069;DHT22;1545;51.728;8.796;2023-05-13T15:35:11;22.60;56.30
3069;DHT22;1545;51.728;8.796;2023-05-13T15:37:36;22.50;56.60
3069;DHT22;1545;51.728;8.796;2023-05-13T15:40:02;22.70;56.20
3069;DHT22;1545;51.728;8.796;2023-05-13T15:42:27;22.70;58.30
3069;DHT22;1545;51.728;8.796;2023-05-13T15:44:53;23.20;58.80
3069;DHT22;1545;51.728;8.796;2023-05-13T15:47:18;23.40;55.80
3069;DHT22;1545;51.728;8.796;2023-05-13T15:49:44;23.50;53.80
3069;DHT22;1545;51.728;8.796;2023-05-13T15:52:09;23.20;54.80
3069;DHT22;1545;51.728;8.796;2023-05-13T15:54:35;23.10;54.40
3069;DHT22;1545;51.728;8.796;2023-05-13T15:57:00;22.90;55.70
3069;DHT22;1545;51.728;8.796;2023-05-13T15:59:26;22.60;54.00
3069;DHT22;1545;51.728;8.796;2023-05-13T16:01:52;22.50;54.80
3069;DHT22;1545;51.728;8.796;2023-05-13T16:04:17;22.50;55.20
3069;DHT22;1545;51.728;8.796;2023-05-13T16:06:43;22.30;59.20
3069;DHT22;1545;51.728;8.796;2023-05-13T16:09:08;22.00;55.70
3069;DHT22;1545;51.728;8.796;2023-05-13T16:11:34;22.00;56.10
3069;DHT22;1545;51.728;8.796;2023-05-13T16:13:59;21.80;57.20
3069;DHT22;1545;51.728;8.796;2023-05-13T16:16:25;22.20;56.90
3069;DHT22;1545;51.728;8.796;2023-05-13T16:18:51;22.20;55.40